createdAt,value
2022-11-12T00:02:15.026Z,13.80
2022-11-12T00:05:01.695Z,16.90
2022-11-12T00:07:48.431Z,17.70
2022-11-12T00:10:35.405Z,16.70
2022-11-12T00:13:22.621Z,15.60
2022-11-12T00:16:10.029Z,17.00
2022-11-12T00:18:56.906Z,16.70
2022-11-12T00:21:43.816Z,15.70
2022-11-12T00:24:30.535Z,16.90
2022-11-12T00:27:17.584Z,15.70
2022-11-12T00:30:05.551Z,15.70
2022-11-12T00:32:52.152Z,15.90
2022-11-12T00:35:38.972Z,14.80
2022-11-12T00:38:25.524Z,14.90
2022-11-12T00:41:12.517Z,14.70
2022-11-12T00:43:59.230Z,15.20
2022-11-12T00:46:46.412Z,14.80
2022-11-12T00:49:33.199Z,15.50
2022-11-12T00:52:20.090Z,15.30
2022-11-12T00:55:07.027Z,16.70
2022-11-12T00:57:53.258Z,15.40
2022-11-12T01:00:39.887Z,16.30
2022-11-12T01:03:28.236Z,15.00
2022-11-12T01:06:19.210Z,15.30
2022-11-12T01:09:05.956Z,15.60
2022-11-12T01:11:52.516Z,14.20
2022-11-12T01:14:39.576Z,14.40
2022-11-12T01:17:26.456Z,13.40
2022-11-12T01:20:13.492Z,13.10
2022-11-12T01:23:00.213Z,14.10
2022-11-12T01:25:47.185Z,12.20
2022-11-12T01:28:34.078Z,12.60
2022-11-12T01:31:33.588Z,12.30
2022-11-12T01:34:20.038Z,12.00
2022-11-12T01:37:06.671Z,11.60
2022-11-12T01:39:53.634Z,12.90
2022-11-12T01:42:40.658Z,11.90
2022-11-12T01:45:27.449Z,12.30
2022-11-12T01:48:24.389Z,11.50
2022-11-12T01:51:13.455Z,12.40
2022-11-12T01:54:03.605Z,11.80
2022-11-12T01:56:51.668Z,13.60
2022-11-12T01:59:44.171Z,13.50
2022-11-12T02:02:31.153Z,12.60
2022-11-12T02:05:19.140Z,12.80
2022-11-12T02:08:06.177Z,12.30
2022-11-12T02:10:52.829Z,11.40
2022-11-12T02:13:58.357Z,11.20
2022-11-12T02:16:46.524Z,10.60
2022-11-12T02:19:37.732Z,10.00
2022-11-12T02:22:24.491Z,11.50
2022-11-12T02:25:19.107Z,10.50
2022-11-12T02:28:08.726Z,9.60
2022-11-12T02:30:55.602Z,10.90
2022-11-12T02:33:42.396Z,11.20
2022-11-12T02:36:29.891Z,10.60
2022-11-12T02:39:16.402Z,11.20
2022-11-12T02:42:03.127Z,12.30
2022-11-12T02:44:50.079Z,11.20
2022-11-12T02:47:37.065Z,12.10
2022-11-12T02:50:23.434Z,12.60
2022-11-12T02:53:10.380Z,11.50
2022-11-12T02:55:56.988Z,11.90
2022-11-12T02:58:43.361Z,11.20
2022-11-12T03:01:30.022Z,11.00
2022-11-12T03:04:16.621Z,10.40
2022-11-12T03:07:03.380Z,9.40
2022-11-12T03:09:50.320Z,10.50
2022-11-12T03:12:37.456Z,10.30
2022-11-12T03:15:24.946Z,9.50
2022-11-12T03:18:12.567Z,9.10
2022-11-12T03:20:59.346Z,9.90
2022-11-12T03:23:45.695Z,10.90
2022-11-12T03:26:35.746Z,10.50
2022-11-12T03:29:22.553Z,10.90
2022-11-12T03:32:09.319Z,11.10
2022-11-12T03:34:55.992Z,12.30
2022-11-12T03:37:42.583Z,11.90
2022-11-12T03:40:30.415Z,10.30
2022-11-12T03:43:17.402Z,10.70
2022-11-12T03:46:04.102Z,10.10
2022-11-12T03:48:50.932Z,9.80
2022-11-12T03:51:37.712Z,9.00
2022-11-12T03:54:24.295Z,8.90
2022-11-12T03:57:11.032Z,8.90
2022-11-12T03:59:57.852Z,9.30
2022-11-12T04:02:44.380Z,9.20
2022-11-12T04:05:49.436Z,9.30
2022-11-12T04:08:36.268Z,8.90
2022-11-12T04:11:23.160Z,8.80
2022-11-12T04:14:09.676Z,8.10
2022-11-12T04:17:14.900Z,8.70
2022-11-12T04:20:20.442Z,9.00
2022-11-12T04:23:06.844Z,8.40
2022-11-12T04:26:12.135Z,9.40
2022-11-12T04:29:17.454Z,9.40
2022-11-12T04:32:04.433Z,9.20
2022-11-12T04:34:51.002Z,9.50
2022-11-12T04:37:47.707Z,10.10
2022-11-12T04:40:53.294Z,9.50
2022-11-12T04:43:58.737Z,9.20
2022-11-12T04:46:45.128Z,10.80
2022-11-12T04:49:31.977Z,10.80
2022-11-12T04:52:19.169Z,11.10
2022-11-12T04:55:06.929Z,12.10
2022-11-12T04:57:59.266Z,12.70
2022-11-12T05:00:48.233Z,12.70
2022-11-12T05:03:34.659Z,11.50
2022-11-12T05:06:44.420Z,12.70
2022-11-12T05:09:31.250Z,12.50
2022-11-12T05:12:18.014Z,11.80
2022-11-12T05:15:05.033Z,13.20
2022-11-12T05:17:52.877Z,11.50
2022-11-12T05:20:39.522Z,11.50
2022-11-12T05:23:26.244Z,12.10
2022-11-12T05:26:12.847Z,13.10
2022-11-12T05:28:59.749Z,13.30
2022-11-12T05:31:47.084Z,12.30
2022-11-12T05:34:34.413Z,13.00
2022-11-12T05:37:21.538Z,14.20
2022-11-12T05:40:08.885Z,13.60
2022-11-12T05:42:55.888Z,15.10
2022-11-12T05:45:44.785Z,15.70
2022-11-12T05:48:32.075Z,14.60
2022-11-12T05:51:19.431Z,15.80
2022-11-12T05:54:07.258Z,16.80
2022-11-12T05:56:54.487Z,15.80
2022-11-12T05:59:40.888Z,14.40
2022-11-12T06:02:27.495Z,12.40
2022-11-12T06:05:14.047Z,11.50
2022-11-12T06:08:01.153Z,10.60
2022-11-12T06:10:52.838Z,11.20
2022-11-12T06:13:39.759Z,10.70
2022-11-12T06:16:27.849Z,11.20
2022-11-12T06:19:14.714Z,11.00
2022-11-12T06:22:01.524Z,12.10
2022-11-12T06:24:49.362Z,10.70
2022-11-12T06:27:36.299Z,11.80
2022-11-12T06:30:25.833Z,11.60
2022-11-12T06:33:13.152Z,12.20
2022-11-12T06:36:03.296Z,13.60
2022-11-12T06:38:50.460Z,13.40
2022-11-12T06:41:37.027Z,14.40
2022-11-12T06:44:23.625Z,14.90
2022-11-12T06:47:10.888Z,16.30
2022-11-12T06:49:57.783Z,15.90
2022-11-12T06:52:44.660Z,14.80
2022-11-12T06:55:31.290Z,14.70
2022-11-12T06:58:17.679Z,13.70
2022-11-12T07:01:12.186Z,13.20
2022-11-12T07:03:59.410Z,11.90
2022-11-12T07:06:46.063Z,12.70
2022-11-12T07:09:32.708Z,13.40
2022-11-12T07:12:19.337Z,12.90
2022-11-12T07:15:06.763Z,11.50
2022-11-12T07:17:53.602Z,11.80
2022-11-12T07:20:40.411Z,12.40
2022-11-12T07:23:28.188Z,12.20
2022-11-12T07:26:21.343Z,11.10
2022-11-12T07:29:07.899Z,14.80
2022-11-12T07:31:54.459Z,14.10
2022-11-12T07:34:40.891Z,15.30
2022-11-12T07:37:27.710Z,18.80
2022-11-12T07:40:15.417Z,19.30
2022-11-12T07:43:02.182Z,22.60
2022-11-12T07:45:49.539Z,23.70
2022-11-12T07:48:36.435Z,20.70
2022-11-12T07:51:28.617Z,20.60
2022-11-12T07:54:15.618Z,19.80
2022-11-12T07:57:02.661Z,17.50
2022-11-12T07:59:49.835Z,17.40
2022-11-12T08:02:36.266Z,19.10
2022-11-12T08:05:23.131Z,18.30
2022-11-12T08:08:11.352Z,19.30
2022-11-12T08:10:59.537Z,20.80
2022-11-12T08:13:46.292Z,20.90
2022-11-12T08:16:33.275Z,17.80
2022-11-12T08:19:19.865Z,18.80
2022-11-12T08:22:06.567Z,16.10
2022-11-12T08:24:53.317Z,17.60
2022-11-12T08:27:40.221Z,17.50
2022-11-12T08:30:28.082Z,18.60
2022-11-12T08:33:14.824Z,20.40
2022-11-12T08:36:06.299Z,16.80
2022-11-12T08:38:54.549Z,14.20
2022-11-12T08:41:41.904Z,18.30
2022-11-12T08:44:28.754Z,19.30
2022-11-12T08:47:16.348Z,18.00
2022-11-12T08:50:03.182Z,14.60
2022-11-12T08:52:52.090Z,21.00
2022-11-12T08:55:39.125Z,20.60
2022-11-12T08:58:26.781Z,21.40
2022-11-12T09:01:13.866Z,22.00
2022-11-12T09:04:00.529Z,22.10
2022-11-12T09:06:52.671Z,20.80
2022-11-12T09:09:41.268Z,20.50
2022-11-12T09:12:28.730Z,20.30
2022-11-12T09:15:37.581Z,19.50
2022-11-12T09:21:12.965Z,18.80
2022-11-12T09:23:59.289Z,19.60
2022-11-12T09:26:46.111Z,20.60
2022-11-12T09:29:32.855Z,21.00
2022-11-12T09:32:19.752Z,19.10
2022-11-12T09:35:07.873Z,21.70
2022-11-12T09:37:54.429Z,21.30
2022-11-12T09:40:44.085Z,21.20
2022-11-12T09:43:39.925Z,17.50
2022-11-12T09:46:51.283Z,19.60
2022-11-12T09:49:50.420Z,17.70
2022-11-12T09:52:39.281Z,19.70
2022-11-12T09:55:37.533Z,20.00
2022-11-12T09:58:28.163Z,17.40
2022-11-12T10:01:21.349Z,21.10
2022-11-12T10:04:50.622Z,18.40
2022-11-12T10:08:16.605Z,21.80
2022-11-12T10:11:09.916Z,21.00
2022-11-12T10:14:19.910Z,21.10
2022-11-12T10:17:10.002Z,20.50
2022-11-12T10:20:22.622Z,20.30
2022-11-12T10:23:21.173Z,17.80
2022-11-12T10:26:27.915Z,20.10
2022-11-12T10:29:28.655Z,20.30
2022-11-12T10:32:16.888Z,17.80
2022-11-12T10:35:04.318Z,15.60
2022-11-12T10:37:53.167Z,18.70
2022-11-12T10:40:42.527Z,20.60
2022-11-12T10:43:29.448Z,16.70
2022-11-12T10:46:21.868Z,19.30
2022-11-12T10:49:15.190Z,19.00
2022-11-12T10:52:01.870Z,20.00
2022-11-12T10:54:53.874Z,21.00
2022-11-12T10:57:41.616Z,21.10
2022-11-12T11:00:30.042Z,13.80
2022-11-12T11:03:44.566Z,19.10
2022-11-12T11:06:31.826Z,13.70
2022-11-12T11:09:22.058Z,19.70
2022-11-12T11:12:24.161Z,19.50
2022-11-12T11:15:14.468Z,20.30
2022-11-12T11:18:01.844Z,19.70
2022-11-12T11:20:59.894Z,20.20
2022-11-12T11:23:56.599Z,22.00
2022-11-12T11:29:58.148Z,11.60
2022-11-12T11:33:01.638Z,20.10
2022-11-12T11:36:33.035Z,18.90
2022-11-12T11:39:31.446Z,16.90
2022-11-12T11:42:41.201Z,18.90
2022-11-12T11:45:49.488Z,20.20
2022-11-12T11:48:54.713Z,20.90
2022-11-12T11:51:56.422Z,19.80
2022-11-12T11:55:05.148Z,17.30
2022-11-12T11:58:29.418Z,22.00
2022-11-12T12:01:39.794Z,20.00
2022-11-12T12:04:47.838Z,17.70
2022-11-12T12:08:01.939Z,16.90
2022-11-12T12:11:09.094Z,19.80
2022-11-12T12:14:19.133Z,19.90
2022-11-12T12:17:09.111Z,20.80
2022-11-12T12:20:14.711Z,20.30
2022-11-12T12:23:30.058Z,21.90
2022-11-12T12:26:36.135Z,22.90
2022-11-12T12:29:44.934Z,23.20
2022-11-12T12:32:37.529Z,19.60
2022-11-12T12:35:52.153Z,19.60
2022-11-12T12:38:38.756Z,12.80
2022-11-12T12:41:30.066Z,20.90
2022-11-12T12:44:16.785Z,18.20
2022-11-12T12:47:04.522Z,18.50
2022-11-12T12:49:53.515Z,16.60
2022-11-12T12:53:01.072Z,21.80
2022-11-12T12:55:52.756Z,23.60
2022-11-12T12:58:48.423Z,22.40
2022-11-12T13:01:37.733Z,20.30
2022-11-12T13:04:54.158Z,16.80
2022-11-12T13:07:45.348Z,20.20
2022-11-12T13:10:39.124Z,20.70
2022-11-12T13:13:33.078Z,20.10
2022-11-12T13:16:53.658Z,19.60
2022-11-12T13:19:58.603Z,19.20
2022-11-12T13:22:51.038Z,16.20
2022-11-12T13:25:38.855Z,19.80
2022-11-12T13:28:26.940Z,18.00
2022-11-12T13:31:29.667Z,21.00
2022-11-12T13:34:30.951Z,17.80
2022-11-12T13:37:23.404Z,19.20
2022-11-12T13:40:17.329Z,15.50
2022-11-12T13:43:12.525Z,17.10
2022-11-12T13:46:11.472Z,14.70
2022-11-12T13:49:13.201Z,21.50
2022-11-12T13:52:01.274Z,21.10
2022-11-12T13:55:02.449Z,22.80
2022-11-12T13:57:53.593Z,22.90
2022-11-12T14:00:40.543Z,20.30
2022-11-12T14:03:32.827Z,21.00
2022-11-12T14:06:44.754Z,20.80
2022-11-12T14:09:40.359Z,20.20
2022-11-12T14:12:29.654Z,20.80
2022-11-12T14:15:28.996Z,21.60
2022-11-12T14:19:09.090Z,20.80
2022-11-12T14:22:20.179Z,20.00
2022-11-12T14:25:34.313Z,22.80
2022-11-12T14:28:31.066Z,24.20
2022-11-12T14:31:24.739Z,22.90
2022-11-12T14:34:34.614Z,23.10
2022-11-12T14:37:43.467Z,23.00
2022-11-12T14:40:35.765Z,25.30
2022-11-12T14:43:32.092Z,24.30
2022-11-12T14:46:21.259Z,23.00
2022-11-12T14:49:21.081Z,24.10
2022-11-12T14:52:20.877Z,25.30
2022-11-12T14:55:16.223Z,24.00
2022-11-12T14:58:04.858Z,23.20
2022-11-12T15:00:54.017Z,23.50
2022-11-12T15:03:40.807Z,22.30
2022-11-12T15:06:33.530Z,22.70
2022-11-12T15:09:36.802Z,25.40
2022-11-12T15:12:42.039Z,26.60
2022-11-12T15:15:29.199Z,27.50
2022-11-12T15:18:21.826Z,30.30
2022-11-12T15:21:22.590Z,29.00
2022-11-12T15:24:12.183Z,29.40
2022-11-12T15:27:02.654Z,27.30
2022-11-12T15:29:49.669Z,28.30
2022-11-12T15:32:36.356Z,30.20
2022-11-12T15:35:25.939Z,26.30
2022-11-12T15:38:21.487Z,32.80
2022-11-12T15:41:22.840Z,33.40
2022-11-12T15:44:11.304Z,35.40
2022-11-12T15:47:00.135Z,30.40
2022-11-12T15:49:52.768Z,32.20
2022-11-12T15:52:40.731Z,31.90
2022-11-12T15:55:27.784Z,30.30
2022-11-12T15:58:26.372Z,32.10
2022-11-12T16:01:13.638Z,31.70
2022-11-12T16:04:00.579Z,33.30
2022-11-12T16:06:47.689Z,32.60
2022-11-12T16:09:34.777Z,32.70
2022-11-12T16:12:24.169Z,32.20
2022-11-12T16:15:15.731Z,31.40
2022-11-12T16:18:02.612Z,32.10
2022-11-12T16:20:50.422Z,31.70
2022-11-12T16:23:37.534Z,34.00
2022-11-12T16:26:29.405Z,33.40
2022-11-12T16:29:16.843Z,32.90
2022-11-12T16:32:04.734Z,34.70
2022-11-12T16:34:51.275Z,36.30
2022-11-12T16:37:41.458Z,36.00
2022-11-12T16:40:30.595Z,37.00
2022-11-12T16:43:17.382Z,36.40
2022-11-12T16:46:14.231Z,35.40
2022-11-12T16:49:01.344Z,36.80
2022-11-12T16:51:49.147Z,32.80
2022-11-12T16:54:35.930Z,33.40
2022-11-12T16:57:22.940Z,32.90
2022-11-12T17:00:18.221Z,33.90
2022-11-12T17:03:04.893Z,32.30
2022-11-12T17:05:52.886Z,29.90
2022-11-12T17:08:39.869Z,31.30
2022-11-12T17:11:26.349Z,31.40
2022-11-12T17:14:13.099Z,31.30
2022-11-12T17:16:59.887Z,30.90
2022-11-12T17:19:46.694Z,29.30
2022-11-12T17:22:34.125Z,31.00
2022-11-12T17:25:20.439Z,33.10
2022-11-12T17:28:07.231Z,33.70
2022-11-12T17:31:03.241Z,34.50
2022-11-12T17:33:53.214Z,37.00
2022-11-12T17:36:43.518Z,40.90
2022-11-12T17:39:30.619Z,40.20
2022-11-12T17:42:17.817Z,43.00
2022-11-12T17:45:05.035Z,45.70
2022-11-12T17:47:52.389Z,42.50
2022-11-12T17:50:39.617Z,42.60
2022-11-12T17:53:26.604Z,38.40
2022-11-12T17:56:16.956Z,39.30
2022-11-12T17:59:04.572Z,38.20
2022-11-12T18:01:51.693Z,32.70
2022-11-12T18:04:38.651Z,34.20
2022-11-12T18:07:25.400Z,30.60
2022-11-12T18:10:16.904Z,33.50
2022-11-12T18:13:06.294Z,32.20
2022-11-12T18:15:53.381Z,31.50
2022-11-12T18:18:40.273Z,32.00
2022-11-12T18:21:28.339Z,32.30
2022-11-12T18:24:17.665Z,30.00
2022-11-12T18:27:04.334Z,30.10
2022-11-12T18:29:50.898Z,32.30
2022-11-12T18:32:39.450Z,34.50
2022-11-12T18:35:29.736Z,34.50
2022-11-12T18:38:16.589Z,33.40
2022-11-12T18:41:08.474Z,36.30
2022-11-12T18:43:56.481Z,40.10
2022-11-12T18:46:43.269Z,45.00
2022-11-12T18:49:30.359Z,41.10
2022-11-12T18:52:17.369Z,50.40
2022-11-12T18:55:04.133Z,38.10
2022-11-12T18:57:50.967Z,44.50
2022-11-12T19:00:37.754Z,45.40
2022-11-12T19:03:24.831Z,47.10
2022-11-12T19:06:14.020Z,43.30
2022-11-12T19:09:01.765Z,37.50
2022-11-12T19:11:48.568Z,38.00
2022-11-12T19:14:35.331Z,39.20
2022-11-12T19:17:23.090Z,38.00
2022-11-12T19:20:12.139Z,35.00
2022-11-12T19:22:59.052Z,32.30
2022-11-12T19:25:45.921Z,35.40
2022-11-12T19:28:34.583Z,31.90
2022-11-12T19:31:23.817Z,33.20
2022-11-12T19:34:10.962Z,36.00
2022-11-12T19:37:19.245Z,37.80
2022-11-12T19:40:06.250Z,36.90
2022-11-12T19:42:53.980Z,36.60
2022-11-12T19:45:41.203Z,34.80
2022-11-12T19:48:28.878Z,35.60
2022-11-12T19:51:15.904Z,36.50
2022-11-12T19:54:04.594Z,33.70
2022-11-12T19:56:52.079Z,38.40
2022-11-12T19:59:40.354Z,36.60
2022-11-12T20:02:27.093Z,37.10
2022-11-12T20:05:13.982Z,35.70
2022-11-12T20:08:00.443Z,35.70
2022-11-12T20:10:47.233Z,36.10
2022-11-12T20:13:33.957Z,36.60
2022-11-12T20:16:25.313Z,38.50
2022-11-12T20:19:12.400Z,39.10
2022-11-12T20:21:59.152Z,39.40
2022-11-12T20:24:45.556Z,38.70
2022-11-12T20:27:32.079Z,38.30
2022-11-12T20:30:18.794Z,39.20
2022-11-12T20:33:05.293Z,37.10
2022-11-12T20:35:51.885Z,35.10
2022-11-12T20:38:41.098Z,39.90
2022-11-12T20:41:27.560Z,44.70
2022-11-12T20:44:14.298Z,46.20
2022-11-12T20:47:01.626Z,45.60
2022-11-12T20:49:48.838Z,45.40
2022-11-12T20:52:36.171Z,49.00
2022-11-12T20:55:23.676Z,49.10
2022-11-12T20:58:10.498Z,49.30
2022-11-12T21:00:59.894Z,48.70
2022-11-12T21:03:47.941Z,47.00
2022-11-12T21:06:34.703Z,46.50
2022-11-12T21:09:21.416Z,45.50
2022-11-12T21:12:08.124Z,42.40
2022-11-12T21:14:54.764Z,41.40
2022-11-12T21:17:41.295Z,42.10
2022-11-12T21:20:28.002Z,44.10
2022-11-12T21:23:14.923Z,40.20
2022-11-12T21:26:13.649Z,37.50
2022-11-12T21:29:00.572Z,38.20
2022-11-12T21:31:47.008Z,37.50
2022-11-12T21:34:33.542Z,36.70
2022-11-12T21:37:20.158Z,35.10
2022-11-12T21:40:07.752Z,37.20
2022-11-12T21:42:54.386Z,37.80
2022-11-12T21:45:47.859Z,43.20
2022-11-12T21:48:35.262Z,45.20
2022-11-12T21:51:24.883Z,46.40
2022-11-12T21:54:14.093Z,45.20
2022-11-12T21:57:01.020Z,42.10
2022-11-12T21:59:48.053Z,41.60
2022-11-12T22:02:34.268Z,37.70
2022-11-12T22:05:21.007Z,36.00
2022-11-12T22:08:07.295Z,33.40
2022-11-12T22:11:01.785Z,32.00
2022-11-12T22:13:48.228Z,32.70
2022-11-12T22:16:35.100Z,32.60
2022-11-12T22:19:23.728Z,32.90
2022-11-12T22:22:10.304Z,35.90
2022-11-12T22:24:56.848Z,35.30
2022-11-12T22:27:43.443Z,36.50
2022-11-12T22:30:30.227Z,36.90
2022-11-12T22:33:19.663Z,37.80
2022-11-12T22:36:12.407Z,39.90
2022-11-12T22:38:59.251Z,38.50
2022-11-12T22:41:46.769Z,38.80
2022-11-12T22:44:33.558Z,34.30
2022-11-12T22:47:20.174Z,35.90
2022-11-12T22:50:08.028Z,33.80
2022-11-12T22:52:56.140Z,35.70
2022-11-12T22:55:42.521Z,36.50
2022-11-12T22:58:30.204Z,36.10
2022-11-12T23:01:19.349Z,35.10
2022-11-12T23:04:07.672Z,35.40
2022-11-12T23:06:54.346Z,34.30
2022-11-12T23:09:40.933Z,30.40
2022-11-12T23:12:29.736Z,37.10
2022-11-12T23:15:16.418Z,34.60
2022-11-12T23:18:03.525Z,35.20
2022-11-12T23:20:50.495Z,34.50
2022-11-12T23:23:38.109Z,33.90
2022-11-12T23:26:28.159Z,31.50
2022-11-12T23:29:14.918Z,30.10
2022-11-12T23:32:01.743Z,29.70
2022-11-12T23:34:48.155Z,31.90
2022-11-12T23:37:34.917Z,34.90
2022-11-12T23:40:21.710Z,30.60
2022-11-12T23:43:08.286Z,28.00
2022-11-12T23:45:55.030Z,26.40
2022-11-12T23:48:42.140Z,29.10
2022-11-12T23:51:28.608Z,32.50
2022-11-12T23:54:15.218Z,34.30
2022-11-12T23:57:01.952Z,31.70
2022-11-12T23:59:48.830Z,33.50
